Time;durP1;ratioP1;P1;durP2;ratioP2;P2;SDS_P1;SDS_P2;PMS_P1;PMS_P2;Temp;Humidity;BMP_temperature;BMP_pressure;BME280_temperature;BME280_humidity;BME280_pressure;Samples;Min_cycle;Max_cycle;Signal;HPM_P1;HPM_P2
2021/11/15 00:00:50;;;;;;;31.98;17.52;;;;;;;;;;4876752;29;20037;-89
2021/11/15 00:03:17;;;;;;;30.90;18.30;;;;;;;;;;4878662;29;20132;-89
2021/11/15 00:05:43;;;;;;;29.02;18.92;;;;;;;;;;4884642;29;20025;-89
2021/11/15 00:08:10;;;;;;;30.45;18.02;;;;;;;;;;4865843;29;20522;-89
2021/11/15 00:10:36;;;;;;;32.15;18.08;;;;;;;;;;4879705;29;20067;-89
2021/11/15 00:13:02;;;;;;;30.13;18.73;;;;;;;;;;4881213;29;20056;-89
2021/11/15 00:15:29;;;;;;;29.02;18.45;;;;;;;;;;4870107;29;20033;-89
2021/11/15 00:17:56;;;;;;;31.67;18.33;;;;;;;;;;4880203;29;20028;-88
2021/11/15 00:20:23;;;;;;;29.20;18.45;;;;;;;;;;4880110;29;20033;-89
2021/11/15 00:22:50;;;;;;;31.17;19.13;;;;;;;;;;4862443;29;20399;-89
2021/11/15 00:25:16;;;;;;;31.27;17.88;;;;;;;;;;4862004;29;20037;-89
2021/11/15 00:27:42;;;;;;;34.40;19.95;;;;;;;;;;4877912;29;20029;-89
2021/11/15 00:30:09;;;;;;;34.33;18.45;;;;;;;;;;4878204;29;20029;-89
2021/11/15 00:32:35;;;;;;;29.55;17.52;;;;;;;;;;4861825;29;20044;-89
2021/11/15 00:35:02;;;;;;;30.80;18.02;;;;;;;;;;4880147;29;20494;-89
2021/11/15 00:37:28;;;;;;;35.50;19.08;;;;;;;;;;4882226;29;20406;-89
2021/11/15 00:39:54;;;;;;;33.15;20.98;;;;;;;;;;4869792;29;20092;-90
2021/11/15 00:42:20;;;;;;;29.67;17.35;;;;;;;;;;4894988;29;20033;-89
2021/11/15 00:44:46;;;;;;;31.02;18.95;;;;;;;;;;4865417;29;20029;-90
2021/11/15 00:47:12;;;;;;;30.13;19.27;;;;;;;;;;4866432;29;20029;-90
2021/11/15 00:49:38;;;;;;;30.65;19.67;;;;;;;;;;4865228;29;20033;-89
2021/11/15 00:52:05;;;;;;;31.52;18.27;;;;;;;;;;4881082;29;20042;-89
2021/11/15 00:54:31;;;;;;;28.85;17.75;;;;;;;;;;4883986;29;20036;-89
2021/11/15 00:56:57;;;;;;;32.25;19.20;;;;;;;;;;4882989;29;20131;-89
2021/11/15 00:59:23;;;;;;;30.88;17.92;;;;;;;;;;4893334;29;20056;-89
2021/11/15 01:01:49;;;;;;;29.77;18.10;;;;;;;;;;4883341;29;20130;-89
2021/11/15 01:04:15;;;;;;;30.98;18.38;;;;;;;;;;4883589;29;20021;-89
2021/11/15 01:06:41;;;;;;;30.00;17.60;;;;;;;;;;4883684;29;20072;-90
2021/11/15 01:09:07;;;;;;;33.38;19.52;;;;;;;;;;4883030;29;20033;-90
2021/11/15 01:11:34;;;;;;;30.80;18.45;;;;;;;;;;4883471;29;20033;-89
2021/11/15 01:14:01;;;;;;;33.10;18.83;;;;;;;;;;4900466;29;20033;-89
2021/11/15 01:16:27;;;;;;;29.35;17.77;;;;;;;;;;4883401;29;20025;-89
2021/11/15 01:18:53;;;;;;;36.10;20.17;;;;;;;;;;4882913;29;20447;-89
2021/11/15 01:21:25;;;;;;;35.20;20.58;;;;;;;;;;4899995;29;20376;-89
2021/11/15 01:23:51;;;;;;;32.35;19.52;;;;;;;;;;4900069;29;20025;-89
2021/11/15 01:26:17;;;;;;;32.75;18.73;;;;;;;;;;4882992;29;20059;-89
2021/11/15 01:28:43;;;;;;;30.85;18.73;;;;;;;;;;4899774;29;20021;-89
2021/11/15 01:31:10;;;;;;;29.80;18.35;;;;;;;;;;4882486;29;20489;-89
2021/11/15 01:33:36;;;;;;;30.52;17.88;;;;;;;;;;4883248;29;20037;-90
2021/11/15 01:36:02;;;;;;;33.70;19.10;;;;;;;;;;4882772;29;20040;-89
2021/11/15 01:38:28;;;;;;;35.63;19.33;;;;;;;;;;4899713;29;20025;-89
2021/11/15 01:40:54;;;;;;;33.50;18.85;;;;;;;;;;4882782;29;20055;-89
2021/11/15 01:43:20;;;;;;;35.33;19.27;;;;;;;;;;4899909;29;20372;-89
2021/11/15 01:45:46;;;;;;;31.60;18.55;;;;;;;;;;4883005;29;20176;-89
2021/11/15 01:48:13;;;;;;;34.17;19.45;;;;;;;;;;4881555;29;20084;-89
2021/11/15 01:50:39;;;;;;;32.92;18.63;;;;;;;;;;4881658;29;20029;-89
2021/11/15 01:53:08;;;;;;;32.53;19.33;;;;;;;;;;4881948;29;20036;-89
2021/11/15 01:55:35;;;;;;;31.55;19.17;;;;;;;;;;4882162;29;20039;-90
2021/11/15 01:58:03;;;;;;;34.08;17.80;;;;;;;;;;4882349;29;20087;-89
2021/11/15 02:00:31;;;;;;;34.08;18.92;;;;;;;;;;4879120;29;20562;-89
2021/11/15 02:02:58;;;;;;;32.63;17.77;;;;;;;;;;4882378;29;20033;-89
2021/11/15 02:05:24;;;;;;;29.00;17.00;;;;;;;;;;4882411;29;20033;-88
2021/11/15 02:07:50;;;;;;;28.85;16.52;;;;;;;;;;4899026;29;20509;-89
2021/11/15 02:10:17;;;;;;;28.77;18.00;;;;;;;;;;4898827;29;20129;-89
2021/11/15 02:12:43;;;;;;;32.08;18.13;;;;;;;;;;4899028;29;20107;-90
2021/11/15 02:15:13;;;;;;;28.42;17.50;;;;;;;;;;4882400;29;20432;-89
2021/11/15 02:17:40;;;;;;;28.92;17.77;;;;;;;;;;4882240;29;20067;-89
2021/11/15 02:20:07;;;;;;;31.25;17.38;;;;;;;;;;4881517;29;20521;-89
2021/11/15 02:22:33;;;;;;;27.95;16.92;;;;;;;;;;4881532;29;20542;-89
2021/11/15 02:25:01;;;;;;;28.23;16.95;;;;;;;;;;4882033;29;20025;-90
2021/11/15 02:27:28;;;;;;;29.65;18.40;;;;;;;;;;4882325;29;20029;-89
2021/11/15 02:29:54;;;;;;;26.30;15.80;;;;;;;;;;4881800;29;20032;-89
2021/11/15 02:32:20;;;;;;;28.23;17.88;;;;;;;;;;4881725;29;20028;-89
2021/11/15 02:34:46;;;;;;;26.52;17.17;;;;;;;;;;4882317;29;20056;-89
2021/11/15 02:37:13;;;;;;;27.25;17.00;;;;;;;;;;4898428;29;20471;-88
2021/11/15 02:39:39;;;;;;;28.63;16.08;;;;;;;;;;4898461;29;20036;-89
2021/11/15 02:42:05;;;;;;;25.55;15.57;;;;;;;;;;4881619;29;20036;-89
2021/11/15 02:44:31;;;;;;;29.08;16.35;;;;;;;;;;4898237;29;20024;-89
2021/11/15 02:46:57;;;;;;;30.05;15.95;;;;;;;;;;4898242;29;20096;-89
2021/11/15 02:49:23;;;;;;;25.55;16.17;;;;;;;;;;4881159;29;20032;-89
2021/11/15 02:51:50;;;;;;;26.88;16.27;;;;;;;;;;4898249;29;20482;-89
2021/11/15 02:54:16;;;;;;;26.42;16.15;;;;;;;;;;4898772;29;20035;-89
2021/11/15 02:56:42;;;;;;;23.70;16.15;;;;;;;;;;4897854;29;20068;-89
2021/11/15 02:59:09;;;;;;;26.30;16.60;;;;;;;;;;4898085;29;20049;-89
2021/11/15 03:01:35;;;;;;;23.70;13.50;;;;;;;;;;4879480;29;20119;-89
2021/11/15 03:04:01;;;;;;;26.95;15.35;;;;;;;;;;4891794;29;20045;-89
2021/11/15 03:06:27;;;;;;;25.83;15.38;;;;;;;;;;4863170;29;20021;-88
2021/11/15 03:08:53;;;;;;;27.58;16.13;;;;;;;;;;4879932;29;20029;-89
2021/11/15 03:11:19;;;;;;;26.58;14.60;;;;;;;;;;4869297;29;20032;-89
2021/11/15 03:13:47;;;;;;;25.55;14.45;;;;;;;;;;4862919;29;20057;-89
2021/11/15 03:16:13;;;;;;;22.83;15.15;;;;;;;;;;4862436;29;20029;-89
2021/11/15 03:18:40;;;;;;;24.90;15.52;;;;;;;;;;4879319;29;20471;-89
2021/11/15 03:21:15;;;;;;;25.83;16.05;;;;;;;;;;4863743;29;20033;-89
2021/11/15 03:23:43;;;;;;;25.10;14.68;;;;;;;;;;4883181;29;20084;-89
2021/11/15 03:26:09;;;;;;;15.25;9.45;;;;;;;;;;4881441;29;20025;-89
2021/11/15 03:28:36;;;;;;;17.73;11.00;;;;;;;;;;4880768;29;20169;-89
2021/11/15 03:31:07;;;;;;;18.08;10.90;;;;;;;;;;4875493;29;20032;-89
2021/11/15 03:33:34;;;;;;;18.42;11.55;;;;;;;;;;4862795;29;20506;-89
2021/11/15 03:36:00;;;;;;;21.58;12.35;;;;;;;;;;4866202;29;20025;-89
2021/11/15 03:38:27;;;;;;;20.00;11.73;;;;;;;;;;4875983;29;20547;-89
2021/11/15 03:40:53;;;;;;;17.63;11.55;;;;;;;;;;4876466;29;20041;-89
2021/11/15 03:43:20;;;;;;;18.48;11.00;;;;;;;;;;4867563;29;20028;-89
2021/11/15 03:45:46;;;;;;;22.35;12.73;;;;;;;;;;4874475;29;20503;-88
2021/11/15 03:48:13;;;;;;;18.85;11.45;;;;;;;;;;4890111;29;20028;-89
2021/11/15 03:50:39;;;;;;;23.77;12.88;;;;;;;;;;4890527;29;20085;-89
2021/11/15 03:53:08;;;;;;;23.38;13.52;;;;;;;;;;4862483;29;20048;-89
2021/11/15 03:55:34;;;;;;;22.20;13.32;;;;;;;;;;4879721;29;20040;-89
2021/11/15 03:58:00;;;;;;;20.08;11.82;;;;;;;;;;4879241;29;20037;-89
2021/11/15 04:00:28;;;;;;;21.77;13.13;;;;;;;;;;4862102;29;20053;-89
2021/11/15 04:02:57;;;;;;;25.73;14.75;;;;;;;;;;4861571;29;20115;-90
2021/11/15 04:05:30;;;;;;;21.80;13.10;;;;;;;;;;4867783;29;20033;-89
2021/11/15 04:07:57;;;;;;;23.50;13.48;;;;;;;;;;4864040;29;20510;-89
2021/11/15 04:10:28;;;;;;;20.17;13.35;;;;;;;;;;4862198;29;20052;-89
2021/11/15 04:12:55;;;;;;;24.70;14.40;;;;;;;;;;4873903;29;20044;-89
2021/11/15 04:15:21;;;;;;;27.13;14.90;;;;;;;;;;4876385;29;20032;-89
2021/11/15 04:17:48;;;;;;;26.15;16.23;;;;;;;;;;4866184;29;20033;-89
2021/11/15 04:20:15;;;;;;;22.23;13.07;;;;;;;;;;4882280;29;20029;-89
2021/11/15 04:22:42;;;;;;;24.23;14.95;;;;;;;;;;4882003;29;20044;-89
2021/11/15 04:25:08;;;;;;;27.30;14.93;;;;;;;;;;4877144;29;20025;-89
2021/11/15 04:27:35;;;;;;;23.92;14.07;;;;;;;;;;4882385;29;20032;-89
2021/11/15 04:30:02;;;;;;;25.90;15.15;;;;;;;;;;4865238;29;20033;-89
2021/11/15 04:32:28;;;;;;;25.10;14.68;;;;;;;;;;4875039;29;20029;-89
2021/11/15 04:34:54;;;;;;;26.40;16.05;;;;;;;;;;4865660;29;20127;-89
2021/11/15 04:37:20;;;;;;;25.20;15.65;;;;;;;;;;4865190;29;20080;-89
2021/11/15 04:39:46;;;;;;;30.83;16.73;;;;;;;;;;4882127;29;20029;-89
2021/11/15 04:42:12;;;;;;;26.42;15.75;;;;;;;;;;4865102;29;20041;-89
2021/11/15 04:44:38;;;;;;;23.83;15.15;;;;;;;;;;4864899;29;20116;-89
2021/11/15 04:47:04;;;;;;;22.52;12.77;;;;;;;;;;4865028;29;20033;-88
2021/11/15 04:49:31;;;;;;;23.45;13.48;;;;;;;;;;4865460;29;20028;-89
2021/11/15 04:51:57;;;;;;;23.33;13.02;;;;;;;;;;4880752;29;20025;-89
2021/11/15 04:54:23;;;;;;;20.48;12.43;;;;;;;;;;4864271;29;20489;-89
2021/11/15 04:56:49;;;;;;;19.90;11.90;;;;;;;;;;4874499;29;20029;-89
2021/11/15 04:59:15;;;;;;;21.40;12.43;;;;;;;;;;4869572;29;20040;-89
2021/11/15 05:01:42;;;;;;;23.50;13.45;;;;;;;;;;4882098;29;20029;-89
2021/11/15 05:04:08;;;;;;;20.75;13.40;;;;;;;;;;4864866;29;20040;-89
2021/11/15 05:06:34;;;;;;;19.80;12.07;;;;;;;;;;4878114;29;20116;-89
2021/11/15 05:09:03;;;;;;;24.38;14.23;;;;;;;;;;4866171;29;20056;-89
2021/11/15 05:11:29;;;;;;;26.40;14.40;;;;;;;;;;4882590;29;20067;-89
2021/11/15 05:13:56;;;;;;;24.23;13.18;;;;;;;;;;4881240;29;20483;-89
2021/11/15 05:16:22;;;;;;;24.55;14.50;;;;;;;;;;4880638;29;20057;-89
2021/11/15 05:18:48;;;;;;;28.45;15.45;;;;;;;;;;4873427;29;20065;-89
2021/11/15 05:21:14;;;;;;;26.42;14.85;;;;;;;;;;4865170;29;20033;-89
2021/11/15 05:23:41;;;;;;;24.20;15.57;;;;;;;;;;4864113;29;20406;-89
2021/11/15 05:26:08;;;;;;;29.20;16.02;;;;;;;;;;4865068;29;20032;-89
2021/11/15 05:28:34;;;;;;;30.70;15.40;;;;;;;;;;4881658;29;20072;-90
2021/11/15 05:31:00;;;;;;;27.15;17.30;;;;;;;;;;4868082;29;20063;-89
2021/11/15 05:33:26;;;;;;;29.08;16.63;;;;;;;;;;4864777;29;20463;-89
2021/11/15 05:35:52;;;;;;;28.60;15.52;;;;;;;;;;4864107;29;20025;-90
2021/11/15 05:38:18;;;;;;;30.25;17.33;;;;;;;;;;4864697;29;20064;-89
2021/11/15 05:40:44;;;;;;;30.85;18.25;;;;;;;;;;4879775;29;20051;-89
2021/11/15 05:43:10;;;;;;;32.40;17.88;;;;;;;;;;4880332;29;20029;-89
2021/11/15 05:45:36;;;;;;;34.47;17.85;;;;;;;;;;4866285;29;20131;-89
2021/11/15 05:48:04;;;;;;;31.20;17.60;;;;;;;;;;4864436;29;20029;-89
2021/11/15 05:50:30;;;;;;;30.65;17.13;;;;;;;;;;4863249;29;20567;-89
2021/11/15 05:52:58;;;;;;;33.70;17.85;;;;;;;;;;4861410;29;20033;-88
2021/11/15 05:55:24;;;;;;;34.25;16.42;;;;;;;;;;4861604;29;20472;-89
2021/11/15 05:57:51;;;;;;;30.60;17.23;;;;;;;;;;4863911;29;20037;-89
2021/11/15 06:00:20;;;;;;;34.33;17.40;;;;;;;;;;4863729;29;20095;-89
2021/11/15 06:02:46;;;;;;;34.60;16.20;;;;;;;;;;4864180;29;20068;-89
2021/11/15 06:05:12;;;;;;;30.40;16.50;;;;;;;;;;4864193;29;20021;-89
2021/11/15 06:07:38;;;;;;;31.30;17.38;;;;;;;;;;4864423;29;20025;-88
2021/11/15 06:10:08;;;;;;;31.13;18.77;;;;;;;;;;4864334;29;20025;-89
2021/11/15 06:12:37;;;;;;;33.53;18.85;;;;;;;;;;4864273;29;20052;-89
2021/11/15 06:15:03;;;;;;;31.15;18.60;;;;;;;;;;4863823;29;20029;-89
2021/11/15 06:17:29;;;;;;;30.55;18.05;;;;;;;;;;4864974;29;20029;-89
2021/11/15 06:19:55;;;;;;;34.92;18.45;;;;;;;;;;4864758;29;20032;-89
2021/11/15 06:22:21;;;;;;;32.25;18.05;;;;;;;;;;4881238;29;20073;-88
2021/11/15 06:24:47;;;;;;;37.15;17.80;;;;;;;;;;4881314;29;20077;-88
2021/11/15 06:27:14;;;;;;;36.40;19.60;;;;;;;;;;4865972;29;20032;-88
2021/11/15 06:29:41;;;;;;;31.55;16.98;;;;;;;;;;4879144;29;20039;-88
2021/11/15 06:32:08;;;;;;;32.13;18.00;;;;;;;;;;4897773;29;20033;-87
2021/11/15 06:34:34;;;;;;;33.97;18.13;;;;;;;;;;4880360;29;20033;-88
2021/11/15 06:37:00;;;;;;;34.80;19.40;;;;;;;;;;4880465;29;20029;-88
2021/11/15 06:39:26;;;;;;;34.03;18.90;;;;;;;;;;4879942;29;20387;-88
2021/11/15 06:41:54;;;;;;;33.85;19.67;;;;;;;;;;4881465;29;20037;-88
2021/11/15 06:44:21;;;;;;;38.13;19.50;;;;;;;;;;4878403;29;20423;-89
2021/11/15 06:46:47;;;;;;;33.33;18.77;;;;;;;;;;4877301;29;20040;-89
2021/11/15 06:49:13;;;;;;;35.05;20.02;;;;;;;;;;4878975;29;20161;-88
2021/11/15 06:51:39;;;;;;;32.03;19.58;;;;;;;;;;4862282;29;20029;-89
2021/11/15 06:54:06;;;;;;;35.80;20.23;;;;;;;;;;4879813;29;20029;-88
2021/11/15 06:56:33;;;;;;;32.60;19.58;;;;;;;;;;4862814;29;20029;-88
2021/11/15 06:58:59;;;;;;;31.50;18.52;;;;;;;;;;4864695;29;20517;-89
2021/11/15 07:01:25;;;;;;;33.17;18.70;;;;;;;;;;4881406;29;20035;-88
2021/11/15 07:03:52;;;;;;;35.15;18.58;;;;;;;;;;4877726;29;20546;-89
2021/11/15 07:06:18;;;;;;;31.73;19.58;;;;;;;;;;4879768;29;20033;-89
2021/11/15 07:08:44;;;;;;;32.65;18.45;;;;;;;;;;4876724;29;20026;-88
2021/11/15 07:11:10;;;;;;;32.45;18.95;;;;;;;;;;4872877;29;20081;-88
2021/11/15 07:13:36;;;;;;;32.97;19.45;;;;;;;;;;4877632;29;20041;-89
2021/11/15 07:16:03;;;;;;;33.03;19.35;;;;;;;;;;4882202;29;20033;-89
2021/11/15 07:18:32;;;;;;;36.20;20.77;;;;;;;;;;4869642;29;20499;-88
2021/11/15 07:20:58;;;;;;;37.85;21.88;;;;;;;;;;4862618;29;20033;-89
2021/11/15 07:23:24;;;;;;;40.28;20.15;;;;;;;;;;4880414;29;20066;-88
2021/11/15 07:25:51;;;;;;;44.30;22.02;;;;;;;;;;4879701;29;20037;-88
2021/11/15 07:28:18;;;;;;;41.38;23.20;;;;;;;;;;4884926;29;20036;-88
2021/11/15 07:30:45;;;;;;;43.15;23.00;;;;;;;;;;4883339;29;20025;-88
2021/11/15 07:33:12;;;;;;;47.40;24.05;;;;;;;;;;4886359;29;20107;-88
2021/11/15 07:35:38;;;;;;;42.67;23.20;;;;;;;;;;4869321;29;20037;-88
2021/11/15 07:38:05;;;;;;;36.42;22.73;;;;;;;;;;4868061;29;20040;-88
2021/11/15 07:40:31;;;;;;;44.40;26.20;;;;;;;;;;4856270;29;20080;-88
2021/11/15 07:42:57;;;;;;;43.85;23.63;;;;;;;;;;4863740;29;20116;-88
2021/11/15 07:45:23;;;;;;;46.35;25.25;;;;;;;;;;4877601;29;20033;-88
2021/11/15 07:47:49;;;;;;;53.92;26.60;;;;;;;;;;4888443;29;20029;-88
2021/11/15 07:50:16;;;;;;;51.63;28.02;;;;;;;;;;4898330;29;20422;-88
2021/11/15 07:52:42;;;;;;;49.63;28.30;;;;;;;;;;4903105;29;20039;-88
2021/11/15 07:55:10;;;;;;;48.05;25.55;;;;;;;;;;4885031;29;20025;-88
2021/11/15 07:57:38;;;;;;;45.72;26.55;;;;;;;;;;4883564;29;20117;-89
2021/11/15 08:00:06;;;;;;;48.60;27.10;;;;;;;;;;4893792;29;20051;-88
2021/11/15 08:02:32;;;;;;;47.80;26.02;;;;;;;;;;4892796;29;20033;-88
2021/11/15 08:04:58;;;;;;;50.42;26.80;;;;;;;;;;4901054;29;20024;-88
2021/11/15 08:07:24;;;;;;;47.03;26.30;;;;;;;;;;4888444;29;20076;-88
2021/11/15 08:09:50;;;;;;;48.50;26.85;;;;;;;;;;4899546;29;20040;-88
2021/11/15 08:12:17;;;;;;;46.10;26.05;;;;;;;;;;4901273;29;20384;-89
2021/11/15 08:14:43;;;;;;;52.33;28.50;;;;;;;;;;4883788;29;20115;-88
2021/11/15 08:17:13;;;;;;;50.35;27.13;;;;;;;;;;4885472;29;20116;-88
2021/11/15 08:19:40;;;;;;;46.83;26.23;;;;;;;;;;4884383;29;20437;-88
2021/11/15 08:22:06;;;;;;;48.83;28.45;;;;;;;;;;4901185;29;20077;-89
2021/11/15 08:24:39;;;;;;;50.90;29.20;;;;;;;;;;4884519;29;20024;-89
2021/11/15 08:27:05;;;;;;;;;;;;;;;;;;4900927;29;20072;-88
2021/11/15 08:29:33;;;;;;;54.25;26.95;;;;;;;;;;4900599;29;19919;-88
2021/11/15 08:32:06;;;;;;;58.53;30.13;;;;;;;;;;4883954;29;20051;-88
2021/11/15 08:34:33;;;;;;;52.10;30.00;;;;;;;;;;4884297;29;20115;-88
2021/11/15 08:36:59;;;;;;;54.22;28.40;;;;;;;;;;4900535;29;20021;-88
2021/11/15 08:39:27;;;;;;;54.90;29.80;;;;;;;;;;4884599;29;20506;-88
2021/11/15 08:42:05;;;;;;;60.80;32.17;;;;;;;;;;4883693;29;20135;-88
2021/11/15 08:44:33;;;;;;;51.63;29.90;;;;;;;;;;4883676;29;20044;-88
2021/11/15 08:46:59;;;;;;;50.70;29.30;;;;;;;;;;4883787;29;20474;-88
2021/11/15 08:49:27;;;;;;;47.40;27.92;;;;;;;;;;4900207;29;20032;-88
2021/11/15 08:51:53;;;;;;;56.67;29.30;;;;;;;;;;4877542;29;20041;-89
2021/11/15 08:54:20;;;;;;;58.42;31.10;;;;;;;;;;4892999;29;20383;-88
2021/11/15 08:56:47;;;;;;;59.40;30.67;;;;;;;;;;4880129;29;20032;-88
2021/11/15 08:59:14;;;;;;;63.25;34.25;;;;;;;;;;4880641;29;20062;-88
2021/11/15 09:01:40;;;;;;;61.72;31.63;;;;;;;;;;4882930;29;20119;-88
2021/11/15 09:04:08;;;;;;;59.33;33.20;;;;;;;;;;4898929;29;20041;-89
2021/11/15 09:06:35;;;;;;;56.45;29.02;;;;;;;;;;4900251;29;20048;-88
2021/11/15 09:09:01;;;;;;;57.83;31.30;;;;;;;;;;4882996;29;20542;-88
2021/11/15 09:11:27;;;;;;;58.75;30.15;;;;;;;;;;4884001;29;20039;-88
2021/11/15 09:13:54;;;;;;;54.40;29.60;;;;;;;;;;4882795;29;20084;-88
2021/11/15 09:16:20;;;;;;;61.40;31.63;;;;;;;;;;4883322;29;20483;-88
2021/11/15 09:18:47;;;;;;;65.43;33.10;;;;;;;;;;4899846;29;20038;-88
2021/11/15 09:21:15;;;;;;;60.55;31.20;;;;;;;;;;4882792;29;20108;-87
2021/11/15 09:23:42;;;;;;;60.40;31.80;;;;;;;;;;4883929;29;20432;-89
2021/11/15 09:26:09;;;;;;;54.55;30.10;;;;;;;;;;4899823;29;20025;-88
2021/11/15 09:28:35;;;;;;;56.50;30.75;;;;;;;;;;4882445;29;20120;-88
2021/11/15 09:31:01;;;;;;;53.38;29.30;;;;;;;;;;4882893;29;20130;-88
2021/11/15 09:33:27;;;;;;;55.17;29.83;;;;;;;;;;4899673;29;20032;-89
2021/11/15 09:35:55;;;;;;;58.25;31.67;;;;;;;;;;4882927;29;20033;-88
2021/11/15 09:38:22;;;;;;;56.40;32.88;;;;;;;;;;4882164;29;20088;-88
2021/11/15 09:40:50;;;;;;;56.70;29.98;;;;;;;;;;4882620;29;20043;-88
2021/11/15 09:43:17;;;;;;;60.83;30.95;;;;;;;;;;4882780;29;20024;-88
2021/11/15 09:45:44;;;;;;;56.90;30.15;;;;;;;;;;4883352;29;20031;-88
2021/11/15 09:48:16;;;;;;;58.40;31.80;;;;;;;;;;4882265;29;20064;-87
2021/11/15 09:50:42;;;;;;;59.25;31.88;;;;;;;;;;4899216;29;20055;-88
2021/11/15 09:53:10;;;;;;;57.40;30.25;;;;;;;;;;4899483;29;20032;-88
2021/11/15 09:55:37;;;;;;;59.28;31.48;;;;;;;;;;4882391;29;20163;-88
2021/11/15 09:58:04;;;;;;;59.17;31.63;;;;;;;;;;4882500;29;20036;-88
2021/11/15 10:00:34;;;;;;;56.60;30.40;;;;;;;;;;4887372;29;20495;-88
2021/11/15 10:03:02;;;;;;;54.17;31.38;;;;;;;;;;4862632;29;20499;-88
2021/11/15 10:05:28;;;;;;;59.38;32.28;;;;;;;;;;4845453;29;20407;-88
2021/11/15 10:07:56;;;;;;;57.83;33.63;;;;;;;;;;4850355;29;20484;-88
2021/11/15 10:10:41;;;;;;;59.83;32.25;;;;;;;;;;4863001;29;20121;-87
2021/11/15 10:13:28;;;;;;;56.00;30.88;;;;;;;;;;4894446;29;20021;-88
2021/11/15 10:16:03;;;;;;;61.40;31.73;;;;;;;;;;4862710;29;20052;-88
2021/11/15 10:18:32;;;;;;;59.58;32.90;;;;;;;;;;4864294;29;20035;-88
2021/11/15 10:21:00;;;;;;;61.47;32.50;;;;;;;;;;4890742;29;20044;-88
2021/11/15 10:23:30;;;;;;;56.13;30.67;;;;;;;;;;4865871;29;20471;-88
2021/11/15 10:26:01;;;;;;;58.75;30.17;;;;;;;;;;4857208;29;20036;-88
2021/11/15 10:28:29;;;;;;;58.85;31.35;;;;;;;;;;4880421;29;20077;-88
2021/11/15 10:30:56;;;;;;;60.72;32.50;;;;;;;;;;4876318;29;20169;-88
2021/11/15 10:33:33;;;;;;;55.25;30.02;;;;;;;;;;4864059;29;20508;-88
2021/11/15 10:35:59;;;;;;;56.80;31.25;;;;;;;;;;4864912;29;20127;-88
2021/11/15 10:38:42;;;;;;;62.85;33.28;;;;;;;;;;4878290;29;20547;-87
2021/11/15 10:41:12;;;;;;;52.40;31.48;;;;;;;;;;4881441;29;20020;-87
2021/11/15 10:43:39;;;;;;;55.60;30.83;;;;;;;;;;4874624;29;20192;-88
2021/11/15 10:46:06;;;;;;;61.53;31.13;;;;;;;;;;4862443;29;20025;-89
2021/11/15 10:48:45;;;;;;;54.65;28.08;;;;;;;;;;4864564;29;20444;-87
2021/11/15 10:51:14;;;;;;;53.05;28.27;;;;;;;;;;4860971;29;20025;-87
2021/11/15 10:53:54;;;;;;;52.30;28.55;;;;;;;;;;4862281;29;20043;-86
2021/11/15 10:56:35;;;;;;;46.03;27.13;;;;;;;;;;4866065;29;20027;-87
2021/11/15 10:59:01;;;;;;;49.88;26.67;;;;;;;;;;4862690;29;20105;-87
2021/11/15 11:01:32;;;;;;;49.33;25.75;;;;;;;;;;4879630;29;20036;-87
2021/11/15 11:04:17;;;;;;;50.13;27.42;;;;;;;;;;4879397;29;20509;-87
2021/11/15 11:06:56;;;;;;;52.88;26.17;;;;;;;;;;4862334;29;20039;-88
2021/11/15 11:09:34;;;;;;;52.25;27.27;;;;;;;;;;4861240;29;20036;-88
2021/11/15 11:12:08;;;;;;;50.75;26.48;;;;;;;;;;4861846;29;20424;-88
2021/11/15 11:14:34;;;;;;;51.33;26.73;;;;;;;;;;4857518;29;20068;-88
2021/11/15 11:17:04;;;;;;;50.80;26.95;;;;;;;;;;4861948;29;20036;-88
2021/11/15 11:19:33;;;;;;;51.25;27.98;;;;;;;;;;4878047;29;20025;-87
2021/11/15 11:22:12;;;;;;;49.03;25.65;;;;;;;;;;4861702;29;20033;-88
2021/11/15 11:27:14;;;;;;;48.97;25.65;;;;;;;;;;4877151;29;20119;-87
2021/11/15 11:29:43;;;;;;;43.90;24.92;;;;;;;;;;4861883;29;20077;-87
2021/11/15 11:32:11;;;;;;;47.75;26.38;;;;;;;;;;4872321;29;20032;-88
2021/11/15 11:34:37;;;;;;;48.28;27.02;;;;;;;;;;4878708;29;20033;-88
2021/11/15 11:37:08;;;;;;;46.05;26.48;;;;;;;;;;4862385;29;20463;-88
2021/11/15 11:39:35;;;;;;;53.15;26.80;;;;;;;;;;4876801;29;20058;-87
2021/11/15 11:42:02;;;;;;;47.40;24.92;;;;;;;;;;4862545;29;20047;-88
2021/11/15 11:44:29;;;;;;;47.20;25.80;;;;;;;;;;4862587;29;20033;-88
2021/11/15 11:46:56;;;;;;;49.55;25.38;;;;;;;;;;4861861;29;20056;-88
2021/11/15 11:49:25;;;;;;;47.03;25.48;;;;;;;;;;4861720;29;20021;-88
2021/11/15 11:51:53;;;;;;;47.55;25.15;;;;;;;;;;4861984;29;20112;-88
2021/11/15 11:54:23;;;;;;;47.30;26.35;;;;;;;;;;4862601;29;20037;-88
2021/11/15 11:57:09;;;;;;;46.10;25.85;;;;;;;;;;4862722;29;20085;-88
2021/11/15 11:59:36;;;;;;;47.80;26.52;;;;;;;;;;4888573;29;20044;-87
2021/11/15 12:02:08;;;;;;;48.08;26.08;;;;;;;;;;4898202;29;20518;-88
2021/11/15 12:04:45;;;;;;;44.08;26.42;;;;;;;;;;4880234;29;20032;-87
2021/11/15 12:07:38;;;;;;;47.35;25.63;;;;;;;;;;4881922;29;20028;-87
2021/11/15 12:10:08;;;;;;;48.60;23.73;;;;;;;;;;4869278;29;20116;-87
2021/11/15 12:12:53;;;;;;;45.17;24.92;;;;;;;;;;4880648;29;20037;-88
2021/11/15 12:15:29;;;;;;;41.40;23.15;;;;;;;;;;4880328;29;20032;-87
2021/11/15 12:18:05;;;;;;;44.15;23.90;;;;;;;;;;4881214;29;20032;-87
2021/11/15 12:20:31;;;;;;;48.40;25.98;;;;;;;;;;4897952;29;20028;-87
2021/11/15 12:22:58;;;;;;;45.92;24.92;;;;;;;;;;4897529;29;20089;-88
2021/11/15 12:25:26;;;;;;;45.42;26.00;;;;;;;;;;4890875;29;20630;-87
2021/11/15 12:27:52;;;;;;;45.00;25.98;;;;;;;;;;4887074;29;20055;-87
2021/11/15 12:30:28;;;;;;;45.30;25.75;;;;;;;;;;4896886;29;20573;-87
2021/11/15 12:33:15;;;;;;;47.22;24.98;;;;;;;;;;4897150;29;20091;-87
2021/11/15 12:36:08;;;;;;;49.95;25.25;;;;;;;;;;4883955;29;20056;-87
2021/11/15 12:38:34;;;;;;;;;;;;;;;;;;4897904;29;20040;-88
2021/11/15 12:41:01;;;;;;;45.40;25.50;;;;;;;;;;4897725;29;19915;-87
2021/11/15 12:43:27;;;;;;;46.17;23.98;;;;;;;;;;4881191;29;20043;-88
2021/11/15 12:46:11;;;;;;;41.85;25.08;;;;;;;;;;4899683;29;20029;-87
2021/11/15 12:48:40;;;;;;;47.95;24.90;;;;;;;;;;4896639;29;20482;-88
2021/11/15 12:51:24;;;;;;;44.45;23.98;;;;;;;;;;4883417;29;20032;-87
2021/11/15 12:53:54;;;;;;;43.78;24.25;;;;;;;;;;4883885;29;20040;-87
2021/11/15 12:56:22;;;;;;;44.13;24.27;;;;;;;;;;4900599;29;20073;-87
2021/11/15 12:58:49;;;;;;;46.10;24.83;;;;;;;;;;4880403;29;20045;-87
2021/11/15 13:01:18;;;;;;;45.80;26.00;;;;;;;;;;4896180;29;20060;-88
2021/11/15 13:03:44;;;;;;;46.47;25.60;;;;;;;;;;4879304;29;20032;-87
2021/11/15 13:06:12;;;;;;;41.72;24.63;;;;;;;;;;4883583;29;20035;-88
2021/11/15 13:08:38;;;;;;;48.40;25.38;;;;;;;;;;4890436;29;20029;-88
2021/11/15 13:11:06;;;;;;;40.15;23.17;;;;;;;;;;4880862;29;20080;-88
2021/11/15 13:13:32;;;;;;;54.95;25.17;;;;;;;;;;4882811;29;20036;-87
2021/11/15 13:15:58;;;;;;;40.28;23.33;;;;;;;;;;4882182;29;20036;-87
2021/11/15 13:18:25;;;;;;;43.95;23.48;;;;;;;;;;4892404;29;20052;-88
2021/11/15 13:20:51;;;;;;;40.78;25.13;;;;;;;;;;4900148;29;20029;-86
2021/11/15 13:23:19;;;;;;;41.65;23.85;;;;;;;;;;4885870;29;20041;-87
2021/11/15 13:25:45;;;;;;;42.92;23.20;;;;;;;;;;4884063;29;20039;-88
2021/11/15 13:28:11;;;;;;;39.92;23.98;;;;;;;;;;4915558;29;20482;-88
2021/11/15 13:30:37;;;;;;;39.50;21.65;;;;;;;;;;4883599;29;20483;-88
2021/11/15 13:33:03;;;;;;;39.42;22.80;;;;;;;;;;4883553;29;20036;-88
2021/11/15 13:35:30;;;;;;;41.42;24.48;;;;;;;;;;4882689;29;20029;-88
2021/11/15 13:38:01;;;;;;;41.97;23.65;;;;;;;;;;4882268;29;20506;-87
2021/11/15 13:40:32;;;;;;;41.85;25.33;;;;;;;;;;4893062;29;20156;-87
2021/11/15 13:43:02;;;;;;;47.95;26.90;;;;;;;;;;4890125;29;20025;-88
2021/11/15 13:45:34;;;;;;;43.40;25.20;;;;;;;;;;4882400;29;20036;-89
2021/11/15 13:48:00;;;;;;;44.75;24.85;;;;;;;;;;4882032;29;20033;-89
2021/11/15 13:50:28;;;;;;;38.83;23.65;;;;;;;;;;4900276;29;20311;-88
2021/11/15 13:52:54;;;;;;;42.70;24.90;;;;;;;;;;4880677;29;20036;-88
2021/11/15 13:55:21;;;;;;;47.15;25.70;;;;;;;;;;4887027;29;20099;-89
2021/11/15 13:57:47;;;;;;;41.33;24.02;;;;;;;;;;4882434;29;20036;-89
2021/11/15 14:00:13;;;;;;;45.78;25.75;;;;;;;;;;4905075;29;20048;-88
2021/11/15 14:02:39;;;;;;;45.55;25.65;;;;;;;;;;4903274;29;20123;-89
2021/11/15 14:05:05;;;;;;;45.72;25.20;;;;;;;;;;4916801;29;20031;-88
2021/11/15 14:07:32;;;;;;;49.38;28.08;;;;;;;;;;4909521;29;20103;-89
2021/11/15 14:09:58;;;;;;;43.03;23.98;;;;;;;;;;4916331;29;20050;-89
2021/11/15 14:12:24;;;;;;;43.53;25.30;;;;;;;;;;4930080;29;20027;-88
2021/11/15 14:14:50;;;;;;;42.88;23.65;;;;;;;;;;4918632;29;20036;-88
2021/11/15 14:17:17;;;;;;;43.47;25.45;;;;;;;;;;4920196;29;20036;-89
2021/11/15 14:19:43;;;;;;;41.67;24.52;;;;;;;;;;4916679;29;20020;-89
2021/11/15 14:22:10;;;;;;;44.97;24.90;;;;;;;;;;4912540;29;20027;-88
2021/11/15 14:24:40;;;;;;;39.72;23.70;;;;;;;;;;4917074;29;20545;-88